Time;durP1;ratioP1;P1;durP2;ratioP2;P2;SDS_P1;SDS_P2;PMS_P1;PMS_P2;Temp;Humidity;BMP_temperature;BMP_pressure;BME280_temperature;BME280_humidity;BME280_pressure;Samples;Min_cycle;Max_cycle;Signal;HPM_P1;HPM_P2
2021/11/28 00:01:51;;;;;;;22.70;14.50;;;23.00;41.20;;;;;;6131807;28;82812;-70
2021/11/28 00:04:52;;;;;;;22.40;13.48;;;23.00;41.50;;;;;;6122777;28;83670;-70
2021/11/28 00:08:09;;;;;;;21.13;13.55;;;23.00;41.40;;;;;;6131472;28;83437;-70
2021/11/28 00:14:29;;;;;;;22.35;14.02;;;23.00;41.50;;;;;;6129461;28;86176;-70
2021/11/28 00:17:30;;;;;;;23.58;13.90;;;23.00;41.40;;;;;;6122292;28;85244;-71
2021/11/28 00:20:30;;;;;;;22.65;14.68;;;23.00;41.30;;;;;;6119908;28;83131;-71
2021/11/28 00:23:31;;;;;;;27.00;16.20;;;22.90;41.60;;;;;;6126737;28;83339;-70
2021/11/28 00:26:32;;;;;;;26.98;16.55;;;23.00;41.80;;;;;;6130628;28;83237;-70
2021/11/28 00:29:32;;;;;;;25.90;15.68;;;22.90;41.60;;;;;;6116332;28;85820;-69
2021/11/28 00:32:33;;;;;;;29.73;17.98;;;22.90;41.40;;;;;;6121020;28;83532;-70
2021/11/28 00:35:34;;;;;;;26.60;15.20;;;22.90;42.00;;;;;;6128401;28;83384;-69
2021/11/28 00:38:34;;;;;;;29.13;17.15;;;22.90;42.40;;;;;;6123082;28;84223;-69
2021/11/28 00:41:35;;;;;;;28.33;17.88;;;22.90;42.50;;;;;;6130957;28;83233;-69
2021/11/28 00:44:36;;;;;;;27.83;16.73;;;22.90;42.40;;;;;;6119408;28;83070;-69
2021/11/28 00:47:37;;;;;;;29.48;17.98;;;22.90;42.30;;;;;;6129707;28;84070;-70
2021/11/28 00:50:48;;;;;;;27.27;16.88;;;22.90;42.50;;;;;;6120139;28;83145;-69
2021/11/28 00:53:48;;;;;;;22.52;14.13;;;22.80;42.60;;;;;;6134706;28;82774;-69
2021/11/28 00:56:49;;;;;;;26.33;16.42;;;22.90;42.40;;;;;;6149025;28;84390;-70
2021/11/28 00:59:49;;;;;;;27.65;16.00;;;22.90;41.80;;;;;;6131490;28;84875;-69
2021/11/28 01:02:50;;;;;;;23.83;15.82;;;22.80;42.40;;;;;;6133681;28;85980;-70
2021/11/28 01:05:52;;;;;;;29.35;16.60;;;22.90;42.40;;;;;;6135197;28;83193;-70
2021/11/28 01:08:52;;;;;;;26.13;15.90;;;22.90;42.30;;;;;;6134594;28;83208;-69
2021/11/28 01:11:53;;;;;;;22.48;15.40;;;22.90;42.10;;;;;;6132346;28;85963;-70
2021/11/28 01:14:54;;;;;;;25.55;16.30;;;22.90;41.90;;;;;;6133761;28;83106;-71
2021/11/28 01:17:54;;;;;;;20.25;13.57;;;22.90;42.00;;;;;;6133965;28;83112;-71
2021/11/28 01:20:55;;;;;;;25.75;15.55;;;22.90;42.40;;;;;;6121710;28;83627;-72
2021/11/28 01:23:55;;;;;;;24.17;14.30;;;22.80;42.00;;;;;;6130365;28;84064;-72
2021/11/28 01:26:56;;;;;;;24.10;15.95;;;22.80;42.20;;;;;;6133764;28;84549;-71
2021/11/28 01:29:58;;;;;;;25.00;14.98;;;22.90;41.90;;;;;;6133600;28;85895;-71
2021/11/28 01:32:59;;;;;;;25.23;15.82;;;22.80;42.10;;;;;;6132108;28;85324;-71
2021/11/28 01:36:00;;;;;;;24.13;13.90;;;22.80;42.40;;;;;;6134903;28;84040;-70
2021/11/28 01:39:00;;;;;;;24.60;15.45;;;22.80;42.40;;;;;;6130810;28;86019;-71
2021/11/28 01:42:01;;;;;;;23.90;15.15;;;22.80;42.50;;;;;;6132413;28;84551;-70
2021/11/28 01:45:01;;;;;;;23.17;14.77;;;22.80;42.60;;;;;;6131972;28;84212;-70
2021/11/28 01:48:02;;;;;;;22.50;15.18;;;22.80;42.30;;;;;;6138404;28;85993;-69
2021/11/28 01:51:02;;;;;;;25.70;14.95;;;22.80;42.00;;;;;;6132419;28;85700;-69
2021/11/28 01:54:10;;;;;;;22.45;14.05;;;22.80;43.00;;;;;;6149963;28;89831;-69
2021/11/28 01:57:11;;;;;;;24.55;14.75;;;22.80;42.90;;;;;;6141786;28;83926;-68
2021/11/28 02:00:12;;;;;;;24.17;15.02;;;22.80;43.00;;;;;;6133388;28;85501;-68
2021/11/28 02:03:18;;;;;;;22.00;13.77;;;22.80;42.50;;;;;;6134855;28;83333;-69
2021/11/28 02:06:18;;;;;;;18.80;13.27;;;22.80;42.90;;;;;;6131355;28;84858;-69
2021/11/28 02:09:19;;;;;;;21.85;14.00;;;22.80;43.10;;;;;;6133589;28;85329;-70
2021/11/28 02:12:20;;;;;;;20.20;12.35;;;22.80;43.30;;;;;;6133012;28;84156;-72
2021/11/28 02:15:21;;;;;;;20.58;12.95;;;22.80;43.40;;;;;;6128449;28;83142;-72
2021/11/28 02:18:22;;;;;;;19.33;12.38;;;22.80;43.10;;;;;;6132023;28;85926;-72
2021/11/28 02:21:22;;;;;;;19.58;12.50;;;22.80;43.10;;;;;;6126264;28;86155;-72
2021/11/28 02:24:23;;;;;;;20.67;13.02;;;22.70;43.40;;;;;;6130371;28;85563;-71
2021/11/28 02:27:24;;;;;;;23.58;15.07;;;22.70;42.90;;;;;;6130595;28;85678;-72
2021/11/28 02:30:24;;;;;;;23.73;13.80;;;22.70;42.90;;;;;;6133202;28;85319;-75
2021/11/28 02:33:26;;;;;;;24.55;14.27;;;22.80;42.90;;;;;;6129850;28;85434;-75
2021/11/28 02:36:28;;;;;;;21.60;13.77;;;22.80;42.70;;;;;;6124048;28;83088;-73
2021/11/28 02:39:30;;;;;;;22.35;14.07;;;22.80;42.60;;;;;;6125798;28;86042;-70
2021/11/28 02:42:31;;;;;;;23.08;14.52;;;22.70;42.40;;;;;;6135720;28;85370;-70
2021/11/28 02:45:31;;;;;;;18.65;12.40;;;22.70;42.90;;;;;;6129954;28;85770;-70
2021/11/28 02:48:32;;;;;;;20.75;14.20;;;22.80;43.10;;;;;;6131349;28;84126;-70
2021/11/28 02:51:33;;;;;;;21.20;13.27;;;22.80;42.80;;;;;;6120331;28;84244;-70
2021/11/28 02:54:35;;;;;;;22.55;14.05;;;22.80;42.90;;;;;;6130167;28;85243;-70
2021/11/28 02:57:36;;;;;;;22.65;14.38;;;22.80;43.20;;;;;;6131037;28;86072;-70
2021/11/28 03:00:36;;;;;;;21.17;13.32;;;22.80;43.00;;;;;;6113747;28;85701;-70
2021/11/28 03:03:37;;;;;;;21.42;13.73;;;22.80;42.60;;;;;;6133131;28;82886;-70
2021/11/28 03:06:37;;;;;;;20.60;12.90;;;22.80;43.00;;;;;;6129431;28;85745;-70
2021/11/28 03:09:39;;;;;;;24.20;15.20;;;22.80;43.80;;;;;;6131238;28;86233;-70
2021/11/28 03:12:40;;;;;;;26.95;17.48;;;22.80;41.90;;;;;;6132208;28;84431;-70
2021/11/28 03:15:40;;;;;;;27.77;16.27;;;22.80;41.60;;;;;;6145762;28;83506;-71
2021/11/28 03:18:41;;;;;;;22.33;15.52;;;22.80;41.40;;;;;;6131970;28;83439;-72
2021/11/28 03:21:41;;;;;;;25.08;15.73;;;22.80;41.50;;;;;;6131298;28;84466;-70
2021/11/28 03:24:42;;;;;;;25.25;15.63;;;22.90;41.40;;;;;;6131460;28;85788;-70
2021/11/28 03:27:44;;;;;;;26.98;16.63;;;22.90;41.50;;;;;;6130378;28;83645;-71
2021/11/28 03:30:44;;;;;;;26.38;16.67;;;23.00;41.60;;;;;;6129106;28;83134;-71
2021/11/28 03:34:03;;;;;;;21.80;15.18;;;23.00;41.70;;;;;;6131454;28;83404;-70
2021/11/28 03:37:06;;;;;;;23.63;15.30;;;23.00;41.80;;;;;;6125617;28;84710;-71
2021/11/28 03:40:07;;;;;;;23.27;15.10;;;23.00;41.80;;;;;;6147686;28;85370;-70
2021/11/28 03:43:08;;;;;;;23.38;15.45;;;23.10;41.60;;;;;;6147442;28;85762;-70
2021/11/28 03:46:09;;;;;;;25.17;15.93;;;23.10;41.70;;;;;;6131312;28;84391;-70
2021/11/28 03:49:10;;;;;;;26.45;15.40;;;23.10;41.80;;;;;;6122134;28;85771;-70
2021/11/28 03:52:10;;;;;;;23.17;15.95;;;23.10;41.80;;;;;;6125188;28;84604;-70
2021/11/28 03:55:15;;;;;;;24.77;15.60;;;23.20;41.80;;;;;;6130359;28;85064;-70
2021/11/28 03:58:16;;;;;;;23.48;14.52;;;23.20;42.00;;;;;;6146394;28;85519;-70
2021/11/28 04:01:16;;;;;;;23.60;14.68;;;23.20;41.80;;;;;;6127817;28;82836;-70
2021/11/28 04:04:17;;;;;;;27.50;15.32;;;23.20;41.80;;;;;;6131823;28;85712;-70
2021/11/28 04:07:36;;;;;;;24.35;15.65;;;23.30;41.70;;;;;;6119892;28;82982;-70
2021/11/28 04:10:37;;;;;;;22.75;14.85;;;23.30;41.50;;;;;;6132893;28;85347;-71
2021/11/28 04:13:37;;;;;;;24.60;16.40;;;23.30;41.50;;;;;;6130314;28;85747;-71
2021/11/28 04:16:38;;;;;;;25.75;15.98;;;23.30;41.40;;;;;;6131658;28;84937;-70
2021/11/28 04:19:39;;;;;;;26.33;15.75;;;23.30;41.30;;;;;;6133015;28;85710;-71
2021/11/28 04:22:40;;;;;;;29.73;17.02;;;23.30;41.20;;;;;;6127004;28;84845;-71
2021/11/28 04:25:41;;;;;;;26.95;16.80;;;23.30;41.10;;;;;;6128394;28;85531;-70
2021/11/28 04:28:42;;;;;;;26.80;15.85;;;23.30;41.10;;;;;;6132432;28;84137;-71
2021/11/28 04:31:46;;;;;;;28.70;17.02;;;23.30;40.90;;;;;;6144720;28;85857;-71
2021/11/28 04:34:46;;;;;;;26.02;17.23;;;23.40;41.00;;;;;;6137036;28;83176;-70
2021/11/28 04:37:47;;;;;;;25.60;16.38;;;23.40;40.90;;;;;;6134534;28;86137;-71
2021/11/28 04:40:48;;;;;;;30.83;17.98;;;23.40;41.00;;;;;;6134827;28;86085;-77
2021/11/28 04:43:49;;;;;;;28.98;17.75;;;23.40;41.60;;;;;;6134617;28;85417;-76
2021/11/28 04:46:50;;;;;;;29.00;17.65;;;23.40;41.70;;;;;;6139829;28;85452;-77
2021/11/28 04:49:50;;;;;;;32.63;18.90;;;23.40;41.60;;;;;;6129088;28;84754;-77
2021/11/28 04:52:51;;;;;;;30.40;18.88;;;23.50;41.60;;;;;;6136145;28;84266;-76
2021/11/28 04:55:53;;;;;;;36.42;19.98;;;23.50;41.70;;;;;;6130749;28;85863;-75
2021/11/28 04:58:54;;;;;;;29.65;17.35;;;23.50;42.20;;;;;;6128842;28;86059;-77
2021/11/28 05:01:56;;;;;;;30.08;17.50;;;23.50;42.40;;;;;;6134188;28;84273;-73
2021/11/28 05:05:00;;;;;;;32.58;18.38;;;23.60;43.10;;;;;;6128821;28;85507;-77
2021/11/28 05:08:20;;;;;;;30.27;18.83;;;23.60;42.20;;;;;;6137402;28;85436;-75
2021/11/28 05:11:21;;;;;;;35.10;20.85;;;23.60;42.00;;;;;;6133597;28;85937;-74
2021/11/28 05:14:22;;;;;;;33.83;20.50;;;23.60;41.90;;;;;;6132605;28;83088;-80
2021/11/28 05:17:22;;;;;;;31.55;19.08;;;23.60;42.10;;;;;;6132859;28;85666;-76
2021/11/28 05:20:29;;;;;;;32.38;19.92;;;23.60;42.10;;;;;;6122713;28;90326;-74
2021/11/28 05:23:30;;;;;;;66.63;31.17;;;23.60;42.60;;;;;;6132456;28;85449;-78
2021/11/28 05:26:30;;;;;;;188.57;92.38;;;23.60;42.60;;;;;;6131896;28;84317;-73
2021/11/28 05:29:31;;;;;;;252.32;117.32;;;23.60;43.00;;;;;;6129000;28;85457;-75
2021/11/28 05:32:31;;;;;;;211.73;102.53;;;23.60;43.30;;;;;;6125684;28;86091;-74
2021/11/28 05:35:50;;;;;;;153.70;76.05;;;23.70;44.40;;;;;;6128343;28;86364;-74
2021/11/28 05:39:04;;;;;;;150.30;72.32;;;23.70;44.50;;;;;;6129159;28;84571;-75
2021/11/28 05:42:05;;;;;;;111.13;52.85;;;23.70;44.80;;;;;;6128378;28;84748;-75
2021/11/28 05:45:05;;;;;;;90.68;43.83;;;23.60;46.00;;;;;;6129523;28;85069;-76
2021/11/28 05:48:32;;;;;;;82.18;39.92;;;23.50;46.80;;;;;;6130102;28;84055;-74
2021/11/28 05:51:51;;;;;;;64.85;32.40;;;23.50;47.60;;;;;;6128106;28;83073;-71
2021/11/28 05:54:53;;;;;;;64.68;32.40;;;23.50;48.00;;;;;;6123874;28;85926;-74
2021/11/28 05:57:54;;;;;;;55.50;28.73;;;23.50;48.40;;;;;;6128806;28;84386;-74
2021/11/28 06:00:55;;;;;;;85.93;38.67;;;23.40;48.70;;;;;;6138376;28;85979;-72
2021/11/28 06:03:55;;;;;;;101.28;53.97;;;23.40;49.40;;;;;;6129619;28;83652;-74
2021/11/28 06:07:15;;;;;;;140.52;77.88;;;23.40;50.20;;;;;;6128644;28;83552;-73
2021/11/28 06:10:18;;;;;;;139.77;72.45;;;23.40;50.00;;;;;;6141757;28;86157;-73
2021/11/28 06:13:19;;;;;;;115.55;59.90;;;23.30;50.00;;;;;;6127035;28;85748;-71
2021/11/28 06:16:35;;;;;;;96.45;49.65;;;23.30;50.20;;;;;;6127466;28;83151;-73
2021/11/28 06:19:54;;;;;;;80.28;41.63;;;23.40;50.80;;;;;;6124281;28;83296;-72
2021/11/28 06:23:13;;;;;;;67.25;34.40;;;23.40;49.90;;;;;;6126423;28;83542;-72
2021/11/28 06:26:13;;;;;;;52.47;30.42;;;23.30;49.90;;;;;;6130803;28;84180;-73
2021/11/28 06:29:14;;;;;;;51.83;28.75;;;23.30;50.30;;;;;;6130132;28;85987;-72
2021/11/28 06:32:15;;;;;;;45.60;26.05;;;23.30;49.70;;;;;;6145636;28;84540;-73
2021/11/28 06:35:54;;;;;;;40.28;22.20;;;23.30;50.00;;;;;;6130568;28;88475;-73
2021/11/28 06:39:30;;;;;;;35.10;19.52;;;23.20;50.40;;;;;;6130566;28;84341;-74
2021/11/28 06:42:44;;;;;;;42.10;21.75;;;23.20;50.80;;;;;;6127224;28;86104;-76
2021/11/28 06:45:45;;;;;;;32.40;19.60;;;23.30;50.70;;;;;;6134456;28;85409;-72
2021/11/28 06:48:46;;;;;;;34.40;19.05;;;23.30;50.80;;;;;;6127524;28;85734;-71
2021/11/28 06:52:06;;;;;;;36.90;20.42;;;23.30;51.10;;;;;;6125640;28;84053;-71
2021/11/28 06:55:26;;;;;;;37.15;19.83;;;23.30;50.80;;;;;;6130479;28;83948;-73
2021/11/28 06:58:46;;;;;;;30.20;17.35;;;23.30;50.90;;;;;;6127859;28;83394;-69
2021/11/28 07:01:46;;;;;;;32.20;17.70;;;23.30;51.10;;;;;;6131002;28;85818;-73
2021/11/28 07:05:07;;;;;;;27.65;17.10;;;23.20;50.90;;;;;;6125794;28;84382;-73
2021/11/28 07:08:13;;;;;;;32.35;18.05;;;23.20;51.20;;;;;;6125620;28;86172;-74
2021/11/28 07:11:14;;;;;;;36.67;19.33;;;23.20;51.10;;;;;;6127904;28;85596;-74
2021/11/28 07:14:15;;;;;;;25.33;16.60;;;23.20;51.00;;;;;;6126720;28;85250;-74
2021/11/28 07:17:16;;;;;;;29.95;16.67;;;23.20;51.10;;;;;;6127983;28;85661;-77
2021/11/28 07:20:17;;;;;;;29.52;16.88;;;23.10;51.30;;;;;;6129960;28;84928;-73
2021/11/28 07:23:20;;;;;;;30.60;16.90;;;23.10;51.70;;;;;;6128868;28;85953;-74
2021/11/28 07:26:21;;;;;;;24.55;14.02;;;23.20;51.90;;;;;;6124211;28;84801;-74
2021/11/28 07:29:22;;;;;;;26.83;14.95;;;23.20;52.00;;;;;;6128791;28;85901;-72
2021/11/28 07:32:23;;;;;;;27.88;15.75;;;23.20;51.80;;;;;;6126341;28;86181;-73
2021/11/28 07:35:49;;;;;;;26.30;15.38;;;23.20;51.80;;;;;;6109199;28;87377;-73
2021/11/28 07:39:04;;;;;;;31.15;15.93;;;23.20;51.70;;;;;;6128936;28;86230;-72
2021/11/28 07:42:06;;;;;;;30.10;15.70;;;23.20;51.50;;;;;;6127232;28;84730;-73
2021/11/28 07:45:38;;;;;;;25.38;15.15;;;23.30;51.80;;;;;;6135619;28;85217;-72
2021/11/28 07:48:59;;;;;;;27.70;14.95;;;23.30;51.70;;;;;;6128951;28;83877;-73
2021/11/28 07:52:00;;;;;;;24.02;14.55;;;23.30;51.80;;;;;;6128100;28;85455;-71
2021/11/28 07:55:01;;;;;;;25.13;14.63;;;23.30;51.80;;;;;;6131284;28;85761;-71
2021/11/28 07:58:27;;;;;;;28.42;16.92;;;23.20;51.70;;;;;;6127518;28;83834;-72
2021/11/28 08:01:32;;;;;;;26.48;14.98;;;23.20;52.40;;;;;;6129223;28;84809;-69
2021/11/28 08:04:51;;;;;;;26.88;14.82;;;23.20;51.80;;;;;;6130564;28;85796;-70
2021/11/28 08:08:11;;;;;;;31.80;15.32;;;23.20;52.00;;;;;;6130257;28;83521;-72
2021/11/28 08:11:34;;;;;;;27.52;14.82;;;23.10;52.00;;;;;;6130280;28;88589;-73
2021/11/28 08:14:35;;;;;;;28.15;15.50;;;23.20;52.20;;;;;;6132051;28;84355;-76
2021/11/28 08:17:38;;;;;;;32.55;16.40;;;23.10;52.20;;;;;;6127492;28;83477;-74
2021/11/28 08:20:38;;;;;;;29.48;15.15;;;23.10;51.80;;;;;;6128177;28;83170;-74
2021/11/28 08:23:39;;;;;;;25.63;14.30;;;23.10;52.40;;;;;;6122722;28;83234;-73
2021/11/28 08:26:40;;;;;;;26.05;14.50;;;23.10;52.60;;;;;;6123892;28;83499;-74
2021/11/28 08:29:41;;;;;;;23.55;14.43;;;23.10;52.60;;;;;;6116481;28;83295;-74
2021/11/28 08:33:16;;;;;;;28.95;15.77;;;23.20;53.10;;;;;;6123438;28;83885;-73
2021/11/28 08:36:31;;;;;;;25.13;14.88;;;23.10;52.80;;;;;;6131358;28;85319;-79
2021/11/28 08:39:32;;;;;;;22.95;14.13;;;23.10;52.70;;;;;;6131059;28;83133;-77
2021/11/28 08:42:33;;;;;;;25.05;14.73;;;23.10;52.90;;;;;;6145677;28;82956;-76
2021/11/28 08:45:34;;;;;;;25.92;14.63;;;23.10;53.10;;;;;;6142648;28;83522;-75
2021/11/28 08:48:35;;;;;;;24.05;14.45;;;23.10;53.30;;;;;;6136463;28;84008;-74
2021/11/28 08:51:35;;;;;;;22.33;13.18;;;23.20;53.80;;;;;;6136990;28;83094;-73
2021/11/28 08:54:36;;;;;;;20.90;12.77;;;23.20;53.90;;;;;;6127466;28;82982;-69
2021/11/28 08:57:37;;;;;;;22.05;12.90;;;23.10;53.60;;;;;;6127137;28;83436;-72
2021/11/28 09:00:37;;;;;;;21.85;12.50;;;23.20;53.90;;;;;;6121043;28;83566;-72
2021/11/28 09:03:38;;;;;;;20.80;12.75;;;23.20;53.60;;;;;;6120646;28;83326;-73
2021/11/28 09:06:38;;;;;;;19.25;11.32;;;23.20;53.20;;;;;;6120307;28;83852;-73
2021/11/28 09:09:39;;;;;;;19.00;12.18;;;23.20;53.60;;;;;;6120961;28;84568;-73
2021/11/28 09:12:40;;;;;;;19.02;11.40;;;23.20;53.50;;;;;;6125020;28;83228;-73
2021/11/28 09:15:40;;;;;;;15.70;9.77;;;23.20;53.20;;;;;;6120821;28;83560;-74
2021/11/28 09:18:49;;;;;;;18.58;10.75;;;23.20;53.80;;;;;;6125763;28;83567;-76
2021/11/28 09:21:50;;;;;;;17.60;10.38;;;23.20;53.60;;;;;;6124550;28;82877;-76
2021/11/28 09:24:50;;;;;;;18.00;10.40;;;23.20;53.20;;;;;;6127136;28;84043;-73
2021/11/28 09:27:51;;;;;;;18.27;11.10;;;23.20;53.20;;;;;;6119348;28;84379;-73
2021/11/28 09:30:52;;;;;;;17.58;11.32;;;23.20;53.00;;;;;;6125136;28;83308;-74
2021/11/28 09:33:52;;;;;;;17.20;10.73;;;23.10;53.00;;;;;;6124985;28;83274;-73
2021/11/28 09:36:53;;;;;;;13.85;9.60;;;23.10;52.80;;;;;;6128165;28;84080;-75
2021/11/28 09:39:53;;;;;;;15.50;9.93;;;23.10;52.80;;;;;;6134547;28;82955;-74
2021/11/28 09:42:54;;;;;;;28.23;17.27;;;23.10;52.60;;;;;;6142686;28;80130;-76
2021/11/28 09:45:55;;;;;;;27.45;15.82;;;23.10;50.30;;;;;;6135730;28;82748;-77
2021/11/28 09:49:01;;;;;;;25.13;15.75;;;23.00;49.10;;;;;;6130743;28;84348;-72
2021/11/28 09:52:01;;;;;;;24.40;14.45;;;22.90;49.20;;;;;;6132007;28;82995;-73
2021/11/28 09:55:02;;;;;;;20.33;12.45;;;23.00;50.20;;;;;;6131818;28;83792;-74
2021/11/28 09:58:03;;;;;;;16.77;11.10;;;23.00;50.50;;;;;;6133919;28;83367;-73
2021/11/28 10:01:03;;;;;;;17.42;11.75;;;23.00;50.90;;;;;;6132755;28;90200;-76
2021/11/28 10:04:04;;;;;;;16.10;10.35;;;23.00;51.90;;;;;;6133044;28;83172;-74
2021/11/28 10:07:04;;;;;;;16.58;10.25;;;23.00;52.90;;;;;;6129525;28;85808;-70
2021/11/28 10:10:05;;;;;;;14.15;9.57;;;23.00;54.20;;;;;;6132415;28;82950;-73
2021/11/28 10:13:05;;;;;;;15.93;9.75;;;23.10;54.90;;;;;;6127886;28;85588;-74
2021/11/28 10:16:06;;;;;;;13.90;9.48;;;23.10;56.50;;;;;;6137148;28;80306;-72
2021/11/28 10:19:06;;;;;;;14.40;9.27;;;23.10;56.30;;;;;;6137073;28;80381;-73
2021/11/28 10:22:07;;;;;;;15.38;9.02;;;23.20;55.80;;;;;;6137024;28;81354;-74
2021/11/28 10:25:15;;;;;;;31.95;13.15;;;23.30;57.00;;;;;;6134218;28;82158;-74
2021/11/28 10:28:15;;;;;;;102.50;33.05;;;23.30;57.40;;;;;;6132173;28;83387;-73
2021/11/28 10:31:16;;;;;;;112.13;35.55;;;23.40;58.40;;;;;;6122004;28;83048;-72
2021/11/28 10:34:16;;;;;;;136.13;39.90;;;23.50;58.50;;;;;;6124145;28;83715;-74
2021/11/28 10:37:17;;;;;;;185.30;48.92;;;23.50;59.20;;;;;;6131000;28;83401;-73
2021/11/28 10:40:18;;;;;;;147.38;42.33;;;23.60;60.20;;;;;;6133639;28;83420;-74
2021/11/28 10:43:18;;;;;;;131.27;42.08;;;23.60;60.60;;;;;;6132261;28;84057;-74
2021/11/28 10:46:19;;;;;;;134.75;44.55;;;23.60;59.60;;;;;;6133038;28;83456;-70
2021/11/28 10:49:19;;;;;;;129.02;41.92;;;23.60;60.00;;;;;;6133001;28;82839;-71
2021/11/28 10:52:20;;;;;;;132.00;41.55;;;23.60;60.70;;;;;;6132810;28;83399;-70
2021/11/28 10:55:22;;;;;;;110.82;35.47;;;23.60;61.20;;;;;;6131537;28;83181;-70
2021/11/28 10:58:24;;;;;;;105.03;34.58;;;23.60;61.30;;;;;;6130030;28;82929;-70
2021/11/28 11:01:25;;;;;;;94.85;31.52;;;23.60;61.40;;;;;;6126606;28;83359;-70
2021/11/28 11:04:29;;;;;;;91.68;28.17;;;23.60;62.00;;;;;;6121216;28;89734;-70
2021/11/28 11:07:29;;;;;;;74.03;28.02;;;23.60;62.80;;;;;;6123754;28;84043;-71
2021/11/28 11:10:30;;;;;;;71.65;26.20;;;23.60;62.10;;;;;;6129417;28;83969;-70
2021/11/28 11:13:31;;;;;;;77.07;26.30;;;23.60;62.00;;;;;;6130898;28;84539;-69
2021/11/28 11:16:31;;;;;;;67.03;22.88;;;23.60;61.20;;;;;;6131708;28;84230;-71
2021/11/28 11:19:34;;;;;;;62.90;21.85;;;23.50;61.40;;;;;;6133051;28;83232;-71
2021/11/28 11:22:37;;;;;;;61.20;20.85;;;23.60;61.10;;;;;;6132961;28;83782;-72
2021/11/28 11:25:38;;;;;;;54.15;19.98;;;23.50;60.90;;;;;;6127234;28;83814;-70
2021/11/28 11:28:39;;;;;;;55.17;18.95;;;23.60;60.50;;;;;;6130728;28;83695;-67
2021/11/28 11:31:39;;;;;;;45.85;17.67;;;23.50;60.70;;;;;;6128533;28;83884;-68
2021/11/28 11:34:40;;;;;;;39.78;15.40;;;23.50;59.60;;;;;;6125662;28;84170;-67
2021/11/28 11:37:40;;;;;;;37.17;14.38;;;23.50;58.80;;;;;;6129706;28;84338;-67
2021/11/28 11:40:41;;;;;;;30.48;14.18;;;23.50;57.70;;;;;;6133981;28;84161;-68
2021/11/28 11:43:42;;;;;;;33.28;13.50;;;23.50;57.30;;;;;;6131367;28;84060;-68
2021/11/28 11:46:45;;;;;;;26.08;12.13;;;23.50;56.70;;;;;;6132562;28;83851;-69
2021/11/28 11:49:46;;;;;;;32.35;13.82;;;23.50;56.30;;;;;;6124501;28;88130;-65
2021/11/28 11:52:47;;;;;;;25.48;13.32;;;23.40;55.80;;;;;;6146590;28;83290;-67
2021/11/28 11:55:47;;;;;;;28.63;13.52;;;23.40;55.20;;;;;;6118470;28;83828;-67
2021/11/28 11:58:48;;;;;;;23.90;12.30;;;23.50;54.90;;;;;;6123371;28;83305;-66
2021/11/28 12:01:48;;;;;;;26.98;12.98;;;23.40;54.60;;;;;;6124826;28;82777;-66
2021/11/28 12:04:49;;;;;;;24.75;13.70;;;23.40;53.60;;;;;;6120761;28;83210;-67
2021/11/28 12:07:50;;;;;;;24.42;13.43;;;23.40;52.50;;;;;;6124482;28;83283;-67
2021/11/28 12:10:50;;;;;;;24.23;12.38;;;23.40;51.80;;;;;;6121793;28;83412;-69
2021/11/28 12:13:52;;;;;;;19.15;12.25;;;23.40;51.70;;;;;;6121829;28;89114;-68
2021/11/28 12:16:52;;;;;;;19.90;11.25;;;23.40;51.30;;;;;;6126496;28;85942;-66
2021/11/28 12:19:53;;;;;;;20.33;11.77;;;23.40;51.40;;;;;;6120522;28;83888;-68
2021/11/28 12:22:53;;;;;;;16.52;10.05;;;23.40;51.20;;;;;;6124404;28;85797;-69
2021/11/28 12:25:54;;;;;;;18.20;10.05;;;23.40;50.90;;;;;;6126916;28;83876;-67
2021/11/28 12:28:54;;;;;;;20.08;9.98;;;23.40;50.90;;;;;;6129168;28;83904;-68
2021/11/28 12:31:55;;;;;;;15.50;9.73;;;23.40;50.70;;;;;;6122396;28;83250;-67
2021/11/28 12:34:58;;;;;;;18.52;10.07;;;23.40;50.40;;;;;;6138703;28;84774;-67
2021/11/28 12:37:58;;;;;;;14.60;9.75;;;23.40;50.20;;;;;;6120303;28;83291;-67
2021/11/28 12:40:59;;;;;;;17.33;10.23;;;23.40;50.20;;;;;;6120429;28;82948;-67
2021/11/28 12:43:59;;;;;;;14.40;9.70;;;23.40;50.10;;;;;;6122423;28;83045;-68
2021/11/28 12:47:00;;;;;;;14.65;8.93;;;23.30;49.80;;;;;;6132635;28;82115;-67
2021/11/28 12:50:01;;;;;;;13.73;8.98;;;23.30;49.90;;;;;;6130599;28;80644;-67
2021/11/28 12:53:01;;;;;;;14.85;8.57;;;23.40;49.90;;;;;;6137773;28;80433;-66
2021/11/28 12:56:02;;;;;;;16.27;7.93;;;23.30;49.60;;;;;;6135471;28;80314;-66
2021/11/28 12:59:02;;;;;;;11.73;8.32;;;23.30;49.60;;;;;;6134978;28;83569;-71
2021/11/28 13:02:03;;;;;;;9.80;7.72;;;23.30;49.80;;;;;;6132744;28;80670;-66
2021/11/28 13:05:05;;;;;;;11.05;7.43;;;23.30;49.60;;;;;;6132181;28;80336;-67
2021/11/28 13:08:06;;;;;;;12.68;8.63;;;23.30;49.20;;;;;;6131811;28;80458;-67
2021/11/28 13:11:06;;;;;;;10.90;7.38;;;23.30;48.90;;;;;;6132076;28;81057;-65
2021/11/28 13:14:10;;;;;;;10.75;7.80;;;23.30;48.80;;;;;;6132664;28;81864;-67
2021/11/28 13:17:10;;;;;;;11.88;6.88;;;23.30;48.40;;;;;;6135484;28;83555;-66
2021/11/28 13:20:11;;;;;;;11.73;6.93;;;23.20;48.60;;;;;;6132459;28;80340;-66
2021/11/28 13:23:30;;;;;;;72.70;39.53;;;23.20;48.70;;;;;;6131107;28;84667;-66
2021/11/28 13:26:51;;;;;;;159.63;86.28;;;23.20;49.20;;;;;;6138461;28;84713;-66
2021/11/28 13:29:53;;;;;;;194.10;102.13;;;23.20;48.90;;;;;;6129658;28;83125;-66
2021/11/28 13:32:53;;;;;;;181.43;93.95;;;23.20;49.40;;;;;;6132481;28;86124;-66
2021/11/28 13:35:54;;;;;;;126.40;63.90;;;23.20;48.50;;;;;;6130801;28;85223;-67
2021/11/28 13:38:55;;;;;;;115.45;58.13;;;23.20;48.40;;;;;;6128446;28;84262;-68
2021/11/28 13:41:55;;;;;;;96.28;50.40;;;23.20;48.30;;;;;;6128071;28;84154;-67
2021/11/28 13:44:56;;;;;;;70.60;39.42;;;23.20;48.30;;;;;;6125586;28;88578;-68
2021/11/28 13:47:56;;;;;;;58.65;31.73;;;23.20;48.20;;;;;;6125599;28;83340;-67
2021/11/28 13:50:57;;;;;;;48.63;27.90;;;23.20;47.90;;;;;;6122836;28;83235;-67
2021/11/28 13:53:57;;;;;;;44.47;24.50;;;23.20;48.10;;;;;;6124120;28;84167;-66
2021/11/28 13:56:58;;;;;;;33.05;20.55;;;23.20;48.10;;;;;;6125583;28;83991;-67
2021/11/28 14:00:05;;;;;;;28.25;17.88;;;23.20;48.20;;;;;;6126360;28;83629;-68
2021/11/28 14:03:12;;;;;;;33.47;18.13;;;23.20;47.80;;;;;;6128484;28;83367;-70
2021/11/28 14:06:12;;;;;;;25.42;15.30;;;23.10;48.00;;;;;;6130520;28;83512;-66
2021/11/28 14:09:13;;;;;;;21.65;13.73;;;23.10;48.00;;;;;;6128518;28;83104;-65
2021/11/28 14:12:13;;;;;;;22.73;13.20;;;23.10;48.10;;;;;;6127197;28;83434;-70
2021/11/28 14:15:14;;;;;;;22.00;13.02;;;23.10;47.70;;;;;;6125285;28;83513;-65
2021/11/28 14:18:14;;;;;;;21.30;12.90;;;23.10;47.80;;;;;;6126763;28;84122;-65
2021/11/28 14:21:15;;;;;;;22.50;12.68;;;23.10;47.40;;;;;;6128693;28;83267;-65
2021/11/28 14:24:15;;;;;;;16.80;11.00;;;23.00;47.40;;;;;;6130367;28;83475;-65
2021/11/28 14:27:16;;;;;;;16.48;10.63;;;23.00;47.70;;;;;;6133530;28;84054;-65
2021/11/28 14:30:17;;;;;;;21.95;12.20;;;23.00;47.80;;;;;;6121388;28;83941;-65
2021/11/28 14:33:17;;;;;;;20.23;12.88;;;23.00;47.80;;;;;;6128103;28;83031;-65
2021/11/28 14:36:20;;;;;;;25.70;13.13;;;22.90;48.20;;;;;;6121950;28;84054;-64
2021/11/28 14:39:20;;;;;;;24.50;13.32;;;22.90;48.10;;;;;;6128557;28;83119;-62
2021/11/28 14:42:21;;;;;;;20.38;12.25;;;23.00;48.20;;;;;;6126154;28;83398;-63
2021/11/28 14:45:21;;;;;;;20.58;12.57;;;23.00;48.20;;;;;;6146440;28;83125;-63
2021/11/28 14:48:22;;;;;;;19.15;11.52;;;23.00;48.10;;;;;;6128642;28;83442;-64
2021/11/28 14:51:22;;;;;;;17.73;11.18;;;23.00;47.70;;;;;;6127870;28;82959;-67
2021/11/28 14:54:23;;;;;;;16.67;10.43;;;23.00;47.60;;;;;;6128355;28;83276;-64
2021/11/28 14:57:23;;;;;;;20.63;10.55;;;23.00;47.40;;;;;;6130103;28;83525;-63
2021/11/28 15:00:24;;;;;;;13.25;9.13;;;23.00;47.30;;;;;;6132139;28;82940;-63
2021/11/28 15:03:25;;;;;;;20.20;11.10;;;23.00;47.70;;;;;;6132495;28;84075;-62
2021/11/28 15:06:25;;;;;;;15.65;9.15;;;23.10;47.80;;;;;;6124923;28;83240;-65
2021/11/28 15:09:26;;;;;;;17.95;10.55;;;23.10;47.70;;;;;;6127096;28;83008;-63
2021/11/28 15:12:26;;;;;;;15.95;9.45;;;23.10;47.10;;;;;;6131972;28;82756;-63
2021/11/28 15:15:27;;;;;;;21.90;10.43;;;23.00;47.20;;;;;;6134183;28;83560;-63
2021/11/28 15:18:28;;;;;;;23.30;10.68;;;23.00;47.20;;;;;;6128351;28;83302;-64
2021/11/28 15:21:28;;;;;;;22.23;11.38;;;23.00;47.50;;;;;;6121938;28;84095;-64
2021/11/28 15:24:29;;;;;;;24.98;11.68;;;23.10;47.50;;;;;;6127388;28;83692;-64
2021/11/28 15:27:29;;;;;;;27.23;11.80;;;23.10;47.30;;;;;;6130090;28;83073;-65
2021/11/28 15:30:30;;;;;;;20.52;10.57;;;23.10;47.00;;;;;;6122948;28;82961;-64